sensor_id;sensor_type;location;lat;lon;timestamp;temperature;humidity
318;DHT22;146;53.448;10.228;2023-05-27T00:01:39;11.10;1.00
318;DHT22;146;53.448;10.228;2023-05-27T00:04:06;11.00;1.00
318;DHT22;146;53.448;10.228;2023-05-27T00:06:34;11.10;1.00
318;DHT22;146;53.448;10.228;2023-05-27T00:09:01;11.00;1.00
318;DHT22;146;53.448;10.228;2023-05-27T00:11:28;11.00;1.00
318;DHT22;146;53.448;10.228;2023-05-27T00:13:55;11.00;1.00
318;DHT22;146;53.448;10.228;2023-05-27T00:16:22;11.00;1.00
318;DHT22;146;53.448;10.228;2023-05-27T00:18:50;11.00;1.00
318;DHT22;146;53.448;10.228;2023-05-27T00:21:18;10.90;1.00
318;DHT22;146;53.448;10.228;2023-05-27T00:23:46;10.90;1.00
318;DHT22;146;53.448;10.228;2023-05-27T00:26:13;10.80;1.00
318;DHT22;146;53.448;10.228;2023-05-27T00:28:40;10.80;1.00
318;DHT22;146;53.448;10.228;2023-05-27T00:31:07;10.80;1.00
318;DHT22;146;53.448;10.228;2023-05-27T00:33:34;10.80;1.00
318;DHT22;146;53.448;10.228;2023-05-27T00:36:01;10.80;1.00
318;DHT22;146;53.448;10.228;2023-05-27T00:38:28;10.70;1.00
318;DHT22;146;53.448;10.228;2023-05-27T00:40:56;10.70;1.00
318;DHT22;146;53.448;10.228;2023-05-27T00:43:26;10.70;1.00
318;DHT22;146;53.448;10.228;2023-05-27T00:45:53;10.70;1.00
318;DHT22;146;53.448;10.228;2023-05-27T00:48:20;10.60;1.00
318;DHT22;146;53.448;10.228;2023-05-27T00:50:47;10.60;1.00
318;DHT22;146;53.448;10.228;2023-05-27T00:53:15;10.60;1.00
318;DHT22;146;53.448;10.228;2023-05-27T00:55:42;10.60;1.00
318;DHT22;146;53.448;10.228;2023-05-27T00:58:10;10.60;1.00
318;DHT22;146;53.448;10.228;2023-05-27T01:00:37;10.50;1.00
318;DHT22;146;53.448;10.228;2023-05-27T01:03:04;10.50;1.00
318;DHT22;146;53.448;10.228;2023-05-27T01:05:32;10.40;1.00
318;DHT22;146;53.448;10.228;2023-05-27T01:08:13;10.50;1.00
318;DHT22;146;53.448;10.228;2023-05-27T01:10:49;10.40;1.00
318;DHT22;146;53.448;10.228;2023-05-27T01:13:23;10.40;1.00
318;DHT22;146;53.448;10.228;2023-05-27T01:15:53;10.40;1.00
318;DHT22;146;53.448;10.228;2023-05-27T01:18:22;10.40;1.00
318;DHT22;146;53.448;10.228;2023-05-27T01:20:52;10.40;1.00
318;DHT22;146;53.448;10.228;2023-05-27T01:23:22;10.40;1.00
318;DHT22;146;53.448;10.228;2023-05-27T01:25:49;10.40;1.00
318;DHT22;146;53.448;10.228;2023-05-27T01:28:16;10.30;1.00
318;DHT22;146;53.448;10.228;2023-05-27T01:30:43;10.30;1.00
318;DHT22;146;53.448;10.228;2023-05-27T01:33:13;10.30;1.00
318;DHT22;146;53.448;10.228;2023-05-27T01:35:45;10.30;1.00
318;DHT22;146;53.448;10.228;2023-05-27T01:38:17;10.20;1.00
318;DHT22;146;53.448;10.228;2023-05-27T01:40:47;10.20;1.00
318;DHT22;146;53.448;10.228;2023-05-27T01:43:15;10.20;1.00
318;DHT22;146;53.448;10.228;2023-05-27T01:45:44;10.20;1.00
318;DHT22;146;53.448;10.228;2023-05-27T01:48:11;10.20;1.00
318;DHT22;146;53.448;10.228;2023-05-27T01:50:38;10.10;1.00
318;DHT22;146;53.448;10.228;2023-05-27T01:53:05;10.10;1.00
318;DHT22;146;53.448;10.228;2023-05-27T01:55:32;10.10;1.00
318;DHT22;146;53.448;10.228;2023-05-27T01:58:00;10.00;1.00
318;DHT22;146;53.448;10.228;2023-05-27T02:00:28;10.00;1.00
318;DHT22;146;53.448;10.228;2023-05-27T02:02:55;10.00;1.00
318;DHT22;146;53.448;10.228;2023-05-27T02:05:22;10.10;1.00
318;DHT22;146;53.448;10.228;2023-05-27T02:07:48;10.10;1.00
318;DHT22;146;53.448;10.228;2023-05-27T02:10:15;10.10;1.00
318;DHT22;146;53.448;10.228;2023-05-27T02:12:42;10.00;1.00
318;DHT22;146;53.448;10.228;2023-05-27T02:15:10;10.10;1.00
318;DHT22;146;53.448;10.228;2023-05-27T02:17:37;10.00;1.00
318;DHT22;146;53.448;10.228;2023-05-27T02:20:05;10.00;1.00
318;DHT22;146;53.448;10.228;2023-05-27T02:22:32;9.90;1.00
318;DHT22;146;53.448;10.228;2023-05-27T02:24:59;9.90;1.00
318;DHT22;146;53.448;10.228;2023-05-27T02:27:25;9.80;1.00
318;DHT22;146;53.448;10.228;2023-05-27T02:29:52;9.80;1.00
318;DHT22;146;53.448;10.228;2023-05-27T02:32:20;9.80;1.00
318;DHT22;146;53.448;10.228;2023-05-27T02:34:47;9.80;1.00
318;DHT22;146;53.448;10.228;2023-05-27T02:37:14;9.80;1.00
318;DHT22;146;53.448;10.228;2023-05-27T02:39:41;9.70;1.00
318;DHT22;146;53.448;10.228;2023-05-27T02:42:08;9.70;1.00
318;DHT22;146;53.448;10.228;2023-05-27T02:44:35;9.70;1.00
318;DHT22;146;53.448;10.228;2023-05-27T02:47:02;9.70;1.00
318;DHT22;146;53.448;10.228;2023-05-27T02:49:30;9.70;1.00
318;DHT22;146;53.448;10.228;2023-05-27T02:51:57;9.70;1.00
318;DHT22;146;53.448;10.228;2023-05-27T02:54:23;9.70;1.00
318;DHT22;146;53.448;10.228;2023-05-27T02:56:50;9.70;1.00
318;DHT22;146;53.448;10.228;2023-05-27T02:59:17;9.60;1.00
318;DHT22;146;53.448;10.228;2023-05-27T03:01:44;9.60;1.00
318;DHT22;146;53.448;10.228;2023-05-27T03:04:11;9.60;1.00
318;DHT22;146;53.448;10.228;2023-05-27T03:06:39;9.60;1.00
318;DHT22;146;53.448;10.228;2023-05-27T03:09:06;9.60;1.00
318;DHT22;146;53.448;10.228;2023-05-27T03:11:33;9.60;1.00
318;DHT22;146;53.448;10.228;2023-05-27T03:14:00;9.50;1.00
318;DHT22;146;53.448;10.228;2023-05-27T03:16:27;9.50;1.00
318;DHT22;146;53.448;10.228;2023-05-27T03:18:55;9.50;1.00
318;DHT22;146;53.448;10.228;2023-05-27T03:21:22;9.50;1.00
318;DHT22;146;53.448;10.228;2023-05-27T03:23:50;9.50;1.00
318;DHT22;146;53.448;10.228;2023-05-27T03:26:17;9.50;1.00
318;DHT22;146;53.448;10.228;2023-05-27T03:28:44;9.40;1.00
318;DHT22;146;53.448;10.228;2023-05-27T03:31:11;9.50;1.00
318;DHT22;146;53.448;10.228;2023-05-27T03:33:39;9.50;1.00
318;DHT22;146;53.448;10.228;2023-05-27T03:36:06;9.50;1.00
318;DHT22;146;53.448;10.228;2023-05-27T03:38:33;9.50;1.00
318;DHT22;146;53.448;10.228;2023-05-27T03:41:01;9.50;1.00
318;DHT22;146;53.448;10.228;2023-05-27T03:43:28;9.40;1.00
318;DHT22;146;53.448;10.228;2023-05-27T03:45:55;9.50;1.00
318;DHT22;146;53.448;10.228;2023-05-27T03:48:22;9.50;1.00
318;DHT22;146;53.448;10.228;2023-05-27T03:50:49;9.50;1.00
318;DHT22;146;53.448;10.228;2023-05-27T03:53:15;9.50;1.00
318;DHT22;146;53.448;10.228;2023-05-27T03:55:42;9.40;1.00
318;DHT22;146;53.448;10.228;2023-05-27T03:58:10;9.40;1.00
318;DHT22;146;53.448;10.228;2023-05-27T04:00:39;9.50;1.00
318;DHT22;146;53.448;10.228;2023-05-27T04:03:07;9.50;1.00
318;DHT22;146;53.448;10.228;2023-05-27T04:05:33;9.50;1.00
318;DHT22;146;53.448;10.228;2023-05-27T04:08:00;9.50;1.00
318;DHT22;146;53.448;10.228;2023-05-27T04:10:27;9.60;1.00
318;DHT22;146;53.448;10.228;2023-05-27T04:12:54;9.60;1.00
318;DHT22;146;53.448;10.228;2023-05-27T04:15:22;9.60;1.00
318;DHT22;146;53.448;10.228;2023-05-27T04:17:49;9.60;1.00
318;DHT22;146;53.448;10.228;2023-05-27T04:20:16;9.60;1.00
318;DHT22;146;53.448;10.228;2023-05-27T04:22:43;9.60;1.00
318;DHT22;146;53.448;10.228;2023-05-27T04:25:10;9.60;1.00
318;DHT22;146;53.448;10.228;2023-05-27T04:27:37;9.60;1.00
318;DHT22;146;53.448;10.228;2023-05-27T04:30:05;9.70;1.00
318;DHT22;146;53.448;10.228;2023-05-27T04:32:33;9.70;1.00
318;DHT22;146;53.448;10.228;2023-05-27T04:35:04;9.70;1.00
318;DHT22;146;53.448;10.228;2023-05-27T04:37:33;9.80;1.00
318;DHT22;146;53.448;10.228;2023-05-27T04:40:02;9.80;1.00
318;DHT22;146;53.448;10.228;2023-05-27T04:42:31;9.80;1.00
318;DHT22;146;53.448;10.228;2023-05-27T04:44:58;9.80;1.00
318;DHT22;146;53.448;10.228;2023-05-27T04:47:25;9.90;1.00
318;DHT22;146;53.448;10.228;2023-05-27T04:49:53;9.90;1.00
318;DHT22;146;53.448;10.228;2023-05-27T04:52:20;10.00;1.00
318;DHT22;146;53.448;10.228;2023-05-27T04:54:49;10.00;1.00
318;DHT22;146;53.448;10.228;2023-05-27T04:57:15;10.00;1.00
318;DHT22;146;53.448;10.228;2023-05-27T04:59:44;10.10;1.00
318;DHT22;146;53.448;10.228;2023-05-27T05:02:25;10.10;1.00
318;DHT22;146;53.448;10.228;2023-05-27T05:05:00;10.10;1.00
318;DHT22;146;53.448;10.228;2023-05-27T05:07:27;10.10;1.00
318;DHT22;146;53.448;10.228;2023-05-27T05:09:54;10.20;1.00
318;DHT22;146;53.448;10.228;2023-05-27T05:12:21;10.20;1.00
318;DHT22;146;53.448;10.228;2023-05-27T05:14:48;10.30;1.00
318;DHT22;146;53.448;10.228;2023-05-27T05:17:15;10.40;1.00
318;DHT22;146;53.448;10.228;2023-05-27T05:19:42;10.30;1.00
318;DHT22;146;53.448;10.228;2023-05-27T05:22:10;10.40;1.00
318;DHT22;146;53.448;10.228;2023-05-27T05:24:38;10.40;1.00
318;DHT22;146;53.448;10.228;2023-05-27T05:27:05;10.50;1.00
318;DHT22;146;53.448;10.228;2023-05-27T05:29:32;10.50;1.00
318;DHT22;146;53.448;10.228;2023-05-27T05:31:59;10.60;1.00
318;DHT22;146;53.448;10.228;2023-05-27T05:34:26;10.60;1.00
318;DHT22;146;53.448;10.228;2023-05-27T05:36:53;10.70;1.00
318;DHT22;146;53.448;10.228;2023-05-27T05:39:21;10.70;1.00
318;DHT22;146;53.448;10.228;2023-05-27T05:41:48;10.80;1.00
318;DHT22;146;53.448;10.228;2023-05-27T05:44:16;10.90;1.00
318;DHT22;146;53.448;10.228;2023-05-27T05:46:42;10.90;1.00
318;DHT22;146;53.448;10.228;2023-05-27T05:49:09;10.90;1.00
318;DHT22;146;53.448;10.228;2023-05-27T05:51:36;11.00;1.00
318;DHT22;146;53.448;10.228;2023-05-27T05:54:03;11.10;1.00
318;DHT22;146;53.448;10.228;2023-05-27T05:56:31;11.10;1.00
318;DHT22;146;53.448;10.228;2023-05-27T05:58:58;11.20;1.00
318;DHT22;146;53.448;10.228;2023-05-27T06:01:26;11.20;1.00
318;DHT22;146;53.448;10.228;2023-05-27T06:03:53;11.30;1.00
318;DHT22;146;53.448;10.228;2023-05-27T06:06:20;11.40;1.00
318;DHT22;146;53.448;10.228;2023-05-27T06:08:47;11.40;1.00
318;DHT22;146;53.448;10.228;2023-05-27T06:11:14;11.40;1.00
318;DHT22;146;53.448;10.228;2023-05-27T06:13:42;11.50;1.00
318;DHT22;146;53.448;10.228;2023-05-27T06:16:09;11.60;1.00
318;DHT22;146;53.448;10.228;2023-05-27T06:18:35;11.60;1.00
318;DHT22;146;53.448;10.228;2023-05-27T06:21:02;11.60;1.00
318;DHT22;146;53.448;10.228;2023-05-27T06:23:29;11.80;1.00
318;DHT22;146;53.448;10.228;2023-05-27T06:25:56;11.80;1.00
318;DHT22;146;53.448;10.228;2023-05-27T06:28:23;11.80;1.00
318;DHT22;146;53.448;10.228;2023-05-27T06:30:52;11.90;1.00
318;DHT22;146;53.448;10.228;2023-05-27T06:33:19;12.00;1.00
318;DHT22;146;53.448;10.228;2023-05-27T06:35:45;12.10;1.00
318;DHT22;146;53.448;10.228;2023-05-27T06:38:12;12.20;1.00
318;DHT22;146;53.448;10.228;2023-05-27T06:40:39;12.30;1.00
318;DHT22;146;53.448;10.228;2023-05-27T06:43:06;12.30;1.00
318;DHT22;146;53.448;10.228;2023-05-27T06:45:33;12.40;1.00
318;DHT22;146;53.448;10.228;2023-05-27T06:48:01;12.40;1.00
318;DHT22;146;53.448;10.228;2023-05-27T06:50:28;12.50;1.00
318;DHT22;146;53.448;10.228;2023-05-27T06:52:55;12.60;1.00
318;DHT22;146;53.448;10.228;2023-05-27T06:55:22;12.60;1.00
318;DHT22;146;53.448;10.228;2023-05-27T06:57:49;12.70;1.00
318;DHT22;146;53.448;10.228;2023-05-27T07:00:16;12.80;1.00
318;DHT22;146;53.448;10.228;2023-05-27T07:02:43;12.80;1.00
318;DHT22;146;53.448;10.228;2023-05-27T07:05:11;12.90;1.00
318;DHT22;146;53.448;10.228;2023-05-27T07:07:38;12.90;1.00
318;DHT22;146;53.448;10.228;2023-05-27T07:10:06;13.10;1.00
318;DHT22;146;53.448;10.228;2023-05-27T07:12:33;13.10;1.00
318;DHT22;146;53.448;10.228;2023-05-27T07:15:00;13.20;1.00
318;DHT22;146;53.448;10.228;2023-05-27T07:17:27;13.20;1.00
318;DHT22;146;53.448;10.228;2023-05-27T07:19:53;13.20;1.00
318;DHT22;146;53.448;10.228;2023-05-27T07:22:21;13.30;1.00
318;DHT22;146;53.448;10.228;2023-05-27T07:24:49;13.40;1.00
318;DHT22;146;53.448;10.228;2023-05-27T07:27:16;13.50;1.00
318;DHT22;146;53.448;10.228;2023-05-27T07:29:43;13.50;1.00
318;DHT22;146;53.448;10.228;2023-05-27T07:32:10;13.60;1.00
318;DHT22;146;53.448;10.228;2023-05-27T07:34:36;13.60;1.00
318;DHT22;146;53.448;10.228;2023-05-27T07:37:03;13.60;1.00
318;DHT22;146;53.448;10.228;2023-05-27T07:39:31;13.80;1.00
318;DHT22;146;53.448;10.228;2023-05-27T07:42:01;13.70;1.00
318;DHT22;146;53.448;10.228;2023-05-27T07:44:28;13.90;1.00
318;DHT22;146;53.448;10.228;2023-05-27T07:46:55;14.00;1.00
318;DHT22;146;53.448;10.228;2023-05-27T07:49:24;14.00;1.00
318;DHT22;146;53.448;10.228;2023-05-27T07:51:51;14.10;1.00
318;DHT22;146;53.448;10.228;2023-05-27T07:54:18;14.10;1.00
318;DHT22;146;53.448;10.228;2023-05-27T07:56:46;14.20;1.00
318;DHT22;146;53.448;10.228;2023-05-27T07:59:13;14.20;1.00
318;DHT22;146;53.448;10.228;2023-05-27T08:01:40;14.30;1.00
318;DHT22;146;53.448;10.228;2023-05-27T08:04:06;14.40;1.00
318;DHT22;146;53.448;10.228;2023-05-27T08:06:33;14.50;1.00
318;DHT22;146;53.448;10.228;2023-05-27T08:09:01;14.60;1.00
318;DHT22;146;53.448;10.228;2023-05-27T08:11:31;14.70;1.00
318;DHT22;146;53.448;10.228;2023-05-27T08:13:59;14.80;1.00
318;DHT22;146;53.448;10.228;2023-05-27T08:16:26;14.80;1.00
318;DHT22;146;53.448;10.228;2023-05-27T08:18:53;14.80;1.00
318;DHT22;146;53.448;10.228;2023-05-27T08:21:19;14.90;1.00
318;DHT22;146;53.448;10.228;2023-05-27T08:23:46;15.00;1.00
318;DHT22;146;53.448;10.228;2023-05-27T08:26:13;15.20;1.00
318;DHT22;146;53.448;10.228;2023-05-27T08:28:40;15.20;1.00
318;DHT22;146;53.448;10.228;2023-05-27T08:31:08;15.30;1.00
318;DHT22;146;53.448;10.228;2023-05-27T08:33:35;15.50;1.00
318;DHT22;146;53.448;10.228;2023-05-27T08:36:02;15.50;1.00
318;DHT22;146;53.448;10.228;2023-05-27T08:38:29;15.60;1.00
318;DHT22;146;53.448;10.228;2023-05-27T08:40:56;15.60;1.00
318;DHT22;146;53.448;10.228;2023-05-27T08:43:23;15.60;1.00
318;DHT22;146;53.448;10.228;2023-05-27T08:45:51;15.70;1.00
318;DHT22;146;53.448;10.228;2023-05-27T08:48:19;15.90;1.00
318;DHT22;146;53.448;10.228;2023-05-27T08:50:46;16.00;1.00
318;DHT22;146;53.448;10.228;2023-05-27T08:53:14;16.10;1.00
318;DHT22;146;53.448;10.228;2023-05-27T08:55:44;16.20;1.00
318;DHT22;146;53.448;10.228;2023-05-27T08:58:12;16.20;1.00
318;DHT22;146;53.448;10.228;2023-05-27T09:00:39;16.10;1.00
318;DHT22;146;53.448;10.228;2023-05-27T09:03:06;16.20;1.00
318;DHT22;146;53.448;10.228;2023-05-27T09:05:34;16.10;1.00
318;DHT22;146;53.448;10.228;2023-05-27T09:08:01;16.10;1.00
318;DHT22;146;53.448;10.228;2023-05-27T09:10:35;16.00;1.00
318;DHT22;146;53.448;10.228;2023-05-27T09:13:02;16.10;1.00
318;DHT22;146;53.448;10.228;2023-05-27T09:15:30;16.20;1.00
318;DHT22;146;53.448;10.228;2023-05-27T09:17:58;16.30;1.00
318;DHT22;146;53.448;10.228;2023-05-27T09:20:25;16.50;1.00
318;DHT22;146;53.448;10.228;2023-05-27T09:22:57;16.60;1.00
318;DHT22;146;53.448;10.228;2023-05-27T09:25:25;16.70;1.00
318;DHT22;146;53.448;10.228;2023-05-27T09:27:53;16.80;1.00
318;DHT22;146;53.448;10.228;2023-05-27T09:30:21;16.90;1.00
318;DHT22;146;53.448;10.228;2023-05-27T09:32:48;17.00;1.00
318;DHT22;146;53.448;10.228;2023-05-27T09:35:17;16.90;1.00
318;DHT22;146;53.448;10.228;2023-05-27T09:37:44;16.90;1.00
318;DHT22;146;53.448;10.228;2023-05-27T09:40:13;16.90;1.00
318;DHT22;146;53.448;10.228;2023-05-27T09:42:44;16.90;1.00
318;DHT22;146;53.448;10.228;2023-05-27T09:45:12;16.90;1.00
318;DHT22;146;53.448;10.228;2023-05-27T09:47:41;16.70;1.00
318;DHT22;146;53.448;10.228;2023-05-27T09:50:08;16.70;1.00
318;DHT22;146;53.448;10.228;2023-05-27T09:52:37;16.70;1.00
318;DHT22;146;53.448;10.228;2023-05-27T09:55:07;16.70;1.00
318;DHT22;146;53.448;10.228;2023-05-27T09:57:36;16.60;1.00
318;DHT22;146;53.448;10.228;2023-05-27T10:00:04;16.60;1.00
318;DHT22;146;53.448;10.228;2023-05-27T10:02:36;16.60;1.00
318;DHT22;146;53.448;10.228;2023-05-27T10:05:05;16.50;1.00
318;DHT22;146;53.448;10.228;2023-05-27T10:07:36;16.50;1.00
318;DHT22;146;53.448;10.228;2023-05-27T10:10:05;16.50;1.00
318;DHT22;146;53.448;10.228;2023-05-27T10:12:35;16.50;1.00
318;DHT22;146;53.448;10.228;2023-05-27T10:15:03;16.50;1.00
318;DHT22;146;53.448;10.228;2023-05-27T10:17:40;16.50;1.00
318;DHT22;146;53.448;10.228;2023-05-27T10:20:09;16.60;1.00
318;DHT22;146;53.448;10.228;2023-05-27T10:22:43;16.70;1.00
318;DHT22;146;53.448;10.228;2023-05-27T10:25:13;16.80;1.00
318;DHT22;146;53.448;10.228;2023-05-27T10:27:46;17.00;1.00
318;DHT22;146;53.448;10.228;2023-05-27T10:30:14;17.10;1.00
318;DHT22;146;53.448;10.228;2023-05-27T10:32:47;17.20;1.00
318;DHT22;146;53.448;10.228;2023-05-27T10:35:15;17.40;1.00
318;DHT22;146;53.448;10.228;2023-05-27T10:37:42;17.50;1.00
318;DHT22;146;53.448;10.228;2023-05-27T10:40:10;17.60;1.00
318;DHT22;146;53.448;10.228;2023-05-27T10:42:37;17.80;1.00
318;DHT22;146;53.448;10.228;2023-05-27T10:45:08;17.90;1.00
318;DHT22;146;53.448;10.228;2023-05-27T10:47:37;18.00;1.00
318;DHT22;146;53.448;10.228;2023-05-27T10:50:11;18.10;1.00
318;DHT22;146;53.448;10.228;2023-05-27T10:52:39;18.10;1.00
318;DHT22;146;53.448;10.228;2023-05-27T10:55:06;18.10;1.00
318;DHT22;146;53.448;10.228;2023-05-27T10:57:33;18.20;1.00
318;DHT22;146;53.448;10.228;2023-05-27T11:00:02;18.30;1.00
318;DHT22;146;53.448;10.228;2023-05-27T11:02:36;18.40;1.00
318;DHT22;146;53.448;10.228;2023-05-27T11:05:08;18.40;1.00
318;DHT22;146;53.448;10.228;2023-05-27T11:07:37;18.40;1.00
318;DHT22;146;53.448;10.228;2023-05-27T11:10:06;18.50;1.00
318;DHT22;146;53.448;10.228;2023-05-27T11:12:33;18.70;1.00
318;DHT22;146;53.448;10.228;2023-05-27T11:15:00;18.80;1.00
318;DHT22;146;53.448;10.228;2023-05-27T11:17:28;19.10;1.00
318;DHT22;146;53.448;10.228;2023-05-27T11:19:57;19.20;1.00
318;DHT22;146;53.448;10.228;2023-05-27T11:22:24;19.30;1.00
318;DHT22;146;53.448;10.228;2023-05-27T11:24:58;19.20;1.00
318;DHT22;146;53.448;10.228;2023-05-27T11:27:32;19.20;1.00
318;DHT22;146;53.448;10.228;2023-05-27T11:30:06;19.10;1.00
318;DHT22;146;53.448;10.228;2023-05-27T11:32:35;19.00;1.00
318;DHT22;146;53.448;10.228;2023-05-27T11:35:04;18.90;1.00
318;DHT22;146;53.448;10.228;2023-05-27T11:37:33;19.10;1.00
318;DHT22;146;53.448;10.228;2023-05-27T11:40:00;19.20;1.00
318;DHT22;146;53.448;10.228;2023-05-27T11:42:28;19.30;1.00
318;DHT22;146;53.448;10.228;2023-05-27T11:44:55;19.30;1.00
318;DHT22;146;53.448;10.228;2023-05-27T11:47:24;19.30;1.00
318;DHT22;146;53.448;10.228;2023-05-27T11:49:52;19.30;1.00
318;DHT22;146;53.448;10.228;2023-05-27T11:52:24;19.20;1.00
318;DHT22;146;53.448;10.228;2023-05-27T11:54:50;19.10;1.00
318;DHT22;146;53.448;10.228;2023-05-27T11:57:17;19.00;1.00
318;DHT22;146;53.448;10.228;2023-05-27T11:59:44;19.00;1.00
318;DHT22;146;53.448;10.228;2023-05-27T12:02:11;19.00;1.00
318;DHT22;146;53.448;10.228;2023-05-27T12:04:38;19.10;1.00
318;DHT22;146;53.448;10.228;2023-05-27T12:07:05;19.10;1.00
318;DHT22;146;53.448;10.228;2023-05-27T12:09:33;19.20;1.00
318;DHT22;146;53.448;10.228;2023-05-27T12:12:00;19.30;1.00
318;DHT22;146;53.448;10.228;2023-05-27T12:14:27;19.40;1.00
318;DHT22;146;53.448;10.228;2023-05-27T12:16:53;19.40;1.00
318;DHT22;146;53.448;10.228;2023-05-27T12:19:21;19.40;1.00
318;DHT22;146;53.448;10.228;2023-05-27T12:21:47;19.40;1.00
318;DHT22;146;53.448;10.228;2023-05-27T12:24:14;19.30;1.00
318;DHT22;146;53.448;10.228;2023-05-27T12:26:42;19.40;1.00
318;DHT22;146;53.448;10.228;2023-05-27T12:29:10;19.50;1.00
318;DHT22;146;53.448;10.228;2023-05-27T12:31:37;19.40;1.00
318;DHT22;146;53.448;10.228;2023-05-27T12:34:04;19.50;1.00
318;DHT22;146;53.448;10.228;2023-05-27T12:36:31;19.40;1.00
318;DHT22;146;53.448;10.228;2023-05-27T12:38:59;19.50;1.00
318;DHT22;146;53.448;10.228;2023-05-27T12:41:25;19.60;1.00
318;DHT22;146;53.448;10.228;2023-05-27T12:43:54;19.60;1.00
318;DHT22;146;53.448;10.228;2023-05-27T12:46:21;19.70;1.00
318;DHT22;146;53.448;10.228;2023-05-27T12:48:47;19.70;1.00
318;DHT22;146;53.448;10.228;2023-05-27T12:51:14;19.80;1.00
318;DHT22;146;53.448;10.228;2023-05-27T12:53:41;19.80;1.00
318;DHT22;146;53.448;10.228;2023-05-27T12:56:08;19.80;1.00
318;DHT22;146;53.448;10.228;2023-05-27T12:58:34;19.80;1.00
318;DHT22;146;53.448;10.228;2023-05-27T13:01:03;19.90;1.00
318;DHT22;146;53.448;10.228;2023-05-27T13:03:31;20.00;1.00
318;DHT22;146;53.448;10.228;2023-05-27T13:05:58;20.00;1.00
318;DHT22;146;53.448;10.228;2023-05-27T13:08:25;19.80;1.00
318;DHT22;146;53.448;10.228;2023-05-27T13:10:52;19.80;1.00
318;DHT22;146;53.448;10.228;2023-05-27T13:13:18;19.60;1.00
318;DHT22;146;53.448;10.228;2023-05-27T13:15:46;19.60;1.00
318;DHT22;146;53.448;10.228;2023-05-27T13:18:14;19.40;1.00
318;DHT22;146;53.448;10.228;2023-05-27T13:20:40;19.30;1.00
318;DHT22;146;53.448;10.228;2023-05-27T13:23:07;19.40;1.00
318;DHT22;146;53.448;10.228;2023-05-27T13:25:34;19.50;1.00
318;DHT22;146;53.448;10.228;2023-05-27T13:28:01;19.60;1.00
318;DHT22;146;53.448;10.228;2023-05-27T13:30:28;19.70;1.00
318;DHT22;146;53.448;10.228;2023-05-27T13:32:55;19.70;1.00
318;DHT22;146;53.448;10.228;2023-05-27T13:35:24;19.80;1.00
318;DHT22;146;53.448;10.228;2023-05-27T13:37:50;20.00;1.00
318;DHT22;146;53.448;10.228;2023-05-27T13:40:18;20.00;1.00
318;DHT22;146;53.448;10.228;2023-05-27T13:42:45;20.00;1.00
318;DHT22;146;53.448;10.228;2023-05-27T13:45:12;20.00;1.00
318;DHT22;146;53.448;10.228;2023-05-27T13:47:39;20.00;1.00
318;DHT22;146;53.448;10.228;2023-05-27T13:50:09;19.80;1.00
318;DHT22;146;53.448;10.228;2023-05-27T13:52:37;20.00;1.00
318;DHT22;146;53.448;10.228;2023-05-27T13:55:06;20.10;1.00
318;DHT22;146;53.448;10.228;2023-05-27T13:57:34;20.10;1.00
318;DHT22;146;53.448;10.228;2023-05-27T14:00:00;20.20;1.00
318;DHT22;146;53.448;10.228;2023-05-27T14:02:27;20.10;1.00
318;DHT22;146;53.448;10.228;2023-05-27T14:05:04;20.20;1.00
318;DHT22;146;53.448;10.228;2023-05-27T14:07:40;20.10;1.00
318;DHT22;146;53.448;10.228;2023-05-27T14:10:09;20.20;1.00
318;DHT22;146;53.448;10.228;2023-05-27T14:12:36;20.30;1.00
318;DHT22;146;53.448;10.228;2023-05-27T14:15:04;20.30;1.00
318;DHT22;146;53.448;10.228;2023-05-27T14:17:31;20.30;1.00
318;DHT22;146;53.448;10.228;2023-05-27T14:19:57;20.30;1.00
318;DHT22;146;53.448;10.228;2023-05-27T14:22:24;20.30;1.00
318;DHT22;146;53.448;10.228;2023-05-27T14:24:53;20.40;1.00
318;DHT22;146;53.448;10.228;2023-05-27T14:27:20;20.40;1.00
318;DHT22;146;53.448;10.228;2023-05-27T14:29:46;20.40;1.00
318;DHT22;146;53.448;10.228;2023-05-27T14:32:13;20.50;1.00
318;DHT22;146;53.448;10.228;2023-05-27T14:34:40;20.50;1.00
318;DHT22;146;53.448;10.228;2023-05-27T14:37:07;20.50;1.00
318;DHT22;146;53.448;10.228;2023-05-27T14:39:34;20.50;1.00
318;DHT22;146;53.448;10.228;2023-05-27T14:42:02;20.50;1.00
318;DHT22;146;53.448;10.228;2023-05-27T14:44:31;20.40;1.00
318;DHT22;146;53.448;10.228;2023-05-27T14:46:58;20.30;1.00
318;DHT22;146;53.448;10.228;2023-05-27T14:49:25;20.40;1.00
318;DHT22;146;53.448;10.228;2023-05-27T14:51:52;20.40;1.00
318;DHT22;146;53.448;10.228;2023-05-27T14:54:19;20.40;1.00
318;DHT22;146;53.448;10.228;2023-05-27T14:56:46;20.40;1.00
318;DHT22;146;53.448;10.228;2023-05-27T14:59:15;20.40;1.00
318;DHT22;146;53.448;10.228;2023-05-27T15:01:42;20.40;1.00
318;DHT22;146;53.448;10.228;2023-05-27T15:04:09;20.30;1.00
318;DHT22;146;53.448;10.228;2023-05-27T15:06:36;20.40;1.00
318;DHT22;146;53.448;10.228;2023-05-27T15:09:03;20.30;1.00
318;DHT22;146;53.448;10.228;2023-05-27T15:11:30;20.30;1.00
318;DHT22;146;53.448;10.228;2023-05-27T15:13:57;20.40;1.00
318;DHT22;146;53.448;10.228;2023-05-27T15:16:26;20.50;1.00
318;DHT22;146;53.448;10.228;2023-05-27T15:18:54;20.50;1.00
318;DHT22;146;53.448;10.228;2023-05-27T15:21:21;20.50;1.00
318;DHT22;146;53.448;10.228;2023-05-27T15:23:47;20.50;1.00
318;DHT22;146;53.448;10.228;2023-05-27T15:26:14;20.50;1.00
318;DHT22;146;53.448;10.228;2023-05-27T15:28:41;20.50;1.00
318;DHT22;146;53.448;10.228;2023-05-27T15:31:08;20.60;1.00
318;DHT22;146;53.448;10.228;2023-05-27T15:33:36;20.60;1.00
318;DHT22;146;53.448;10.228;2023-05-27T15:36:03;20.50;1.00
318;DHT22;146;53.448;10.228;2023-05-27T15:38:30;20.60;1.00
318;DHT22;146;53.448;10.228;2023-05-27T15:40:57;20.80;1.00
318;DHT22;146;53.448;10.228;2023-05-27T15:43:24;20.80;1.00
318;DHT22;146;53.448;10.228;2023-05-27T15:45:51;20.70;1.00
318;DHT22;146;53.448;10.228;2023-05-27T15:48:18;20.70;1.00
318;DHT22;146;53.448;10.228;2023-05-27T15:50:49;20.80;1.00
318;DHT22;146;53.448;10.228;2023-05-27T15:53:17;20.80;1.00
318;DHT22;146;53.448;10.228;2023-05-27T15:55:43;20.70;1.00
318;DHT22;146;53.448;10.228;2023-05-27T15:58:10;20.70;1.00
318;DHT22;146;53.448;10.228;2023-05-27T16:00:37;20.80;1.00
318;DHT22;146;53.448;10.228;2023-05-27T16:03:04;20.90;1.00
318;DHT22;146;53.448;10.228;2023-05-27T16:05:31;21.00;1.00
318;DHT22;146;53.448;10.228;2023-05-27T16:07:59;21.00;1.00
318;DHT22;146;53.448;10.228;2023-05-27T16:10:26;21.10;1.00
318;DHT22;146;53.448;10.228;2023-05-27T16:12:53;21.10;1.00
318;DHT22;146;53.448;10.228;2023-05-27T16:15:20;21.20;1.00
318;DHT22;146;53.448;10.228;2023-05-27T16:17:47;21.20;1.00
318;DHT22;146;53.448;10.228;2023-05-27T16:20:14;21.10;1.00
318;DHT22;146;53.448;10.228;2023-05-27T16:22:43;21.00;1.00
318;DHT22;146;53.448;10.228;2023-05-27T16:25:12;21.00;1.00
318;DHT22;146;53.448;10.228;2023-05-27T16:27:38;21.00;1.00
318;DHT22;146;53.448;10.228;2023-05-27T16:30:06;21.20;1.00
318;DHT22;146;53.448;10.228;2023-05-27T16:32:33;21.20;1.00
318;DHT22;146;53.448;10.228;2023-05-27T16:35:00;21.20;1.00
318;DHT22;146;53.448;10.228;2023-05-27T16:37:27;21.20;1.00
318;DHT22;146;53.448;10.228;2023-05-27T16:39:54;21.10;1.00